sensor_id;sensor_type;location;lat;lon;timestamp;P1;durP1;ratioP1;P2;durP2;ratioP2
20986;SDS011;10652;50.306;8.570;2023-05-20T00:03:10;1.60;;;1.50;;
20986;SDS011;10652;50.306;8.570;2023-05-20T00:07:12;2.88;;;1.50;;
20986;SDS011;10652;50.306;8.570;2023-05-20T00:11:14;5.18;;;1.77;;
20986;SDS011;10652;50.306;8.570;2023-05-20T00:15:16;3.83;;;1.35;;
20986;SDS011;10652;50.306;8.570;2023-05-20T00:19:18;2.92;;;1.42;;
20986;SDS011;10652;50.306;8.570;2023-05-20T00:23:21;2.92;;;1.50;;
20986;SDS011;10652;50.306;8.570;2023-05-20T00:27:23;3.30;;;1.60;;
20986;SDS011;10652;50.306;8.570;2023-05-20T00:31:25;2.25;;;1.70;;
20986;SDS011;10652;50.306;8.570;2023-05-20T00:35:27;4.35;;;1.65;;
20986;SDS011;10652;50.306;8.570;2023-05-20T00:39:29;3.20;;;1.60;;
20986;SDS011;10652;50.306;8.570;2023-05-20T00:43:31;2.72;;;1.60;;
20986;SDS011;10652;50.306;8.570;2023-05-20T00:47:33;3.58;;;1.77;;
20986;SDS011;10652;50.306;8.570;2023-05-20T00:51:37;3.47;;;1.90;;
20986;SDS011;10652;50.306;8.570;2023-05-20T00:55:39;3.42;;;1.60;;
20986;SDS011;10652;50.306;8.570;2023-05-20T00:59:41;2.13;;;1.67;;
20986;SDS011;10652;50.306;8.570;2023-05-20T01:03:45;4.00;;;1.65;;
20986;SDS011;10652;50.306;8.570;2023-05-20T01:07:52;3.80;;;1.60;;
20986;SDS011;10652;50.306;8.570;2023-05-20T01:12:41;5.32;;;2.10;;
20986;SDS011;10652;50.306;8.570;2023-05-20T01:16:49;1.70;;;1.60;;
20986;SDS011;10652;50.306;8.570;2023-05-20T01:20:54;4.30;;;1.90;;
20986;SDS011;10652;50.306;8.570;2023-05-20T01:25:02;4.97;;;1.90;;
20986;SDS011;10652;50.306;8.570;2023-05-20T01:29:05;5.53;;;1.80;;
20986;SDS011;10652;50.306;8.570;2023-05-20T01:33:08;4.38;;;1.73;;
20986;SDS011;10652;50.306;8.570;2023-05-20T01:37:13;2.60;;;1.95;;
20986;SDS011;10652;50.306;8.570;2023-05-20T01:41:16;3.63;;;1.90;;
20986;SDS011;10652;50.306;8.570;2023-05-20T01:45:19;5.47;;;2.20;;
20986;SDS011;10652;50.306;8.570;2023-05-20T01:49:21;3.05;;;2.10;;
20986;SDS011;10652;50.306;8.570;2023-05-20T01:53:24;2.85;;;1.73;;
20986;SDS011;10652;50.306;8.570;2023-05-20T01:57:26;4.13;;;2.10;;
20986;SDS011;10652;50.306;8.570;2023-05-20T02:01:28;3.08;;;1.98;;
20986;SDS011;10652;50.306;8.570;2023-05-20T02:05:30;5.00;;;2.10;;
20986;SDS011;10652;50.306;8.570;2023-05-20T02:09:33;3.72;;;1.80;;
20986;SDS011;10652;50.306;8.570;2023-05-20T02:13:35;2.80;;;1.98;;
20986;SDS011;10652;50.306;8.570;2023-05-20T02:17:37;3.42;;;2.15;;
20986;SDS011;10652;50.306;8.570;2023-05-20T02:21:40;2.47;;;2.00;;
20986;SDS011;10652;50.306;8.570;2023-05-20T02:25:44;3.95;;;2.05;;
20986;SDS011;10652;50.306;8.570;2023-05-20T02:29:46;2.97;;;2.30;;
20986;SDS011;10652;50.306;8.570;2023-05-20T02:33:48;3.38;;;2.50;;
20986;SDS011;10652;50.306;8.570;2023-05-20T02:37:50;4.28;;;2.50;;
20986;SDS011;10652;50.306;8.570;2023-05-20T02:41:52;4.88;;;2.40;;
20986;SDS011;10652;50.306;8.570;2023-05-20T02:45:55;3.05;;;2.42;;
20986;SDS011;10652;50.306;8.570;2023-05-20T02:49:57;4.85;;;2.60;;
20986;SDS011;10652;50.306;8.570;2023-05-20T02:53:59;2.72;;;2.38;;
20986;SDS011;10652;50.306;8.570;2023-05-20T02:58:01;4.05;;;2.50;;
20986;SDS011;10652;50.306;8.570;2023-05-20T03:02:07;2.65;;;2.40;;
20986;SDS011;10652;50.306;8.570;2023-05-20T03:06:09;3.42;;;2.45;;
20986;SDS011;10652;50.306;8.570;2023-05-20T03:10:12;3.97;;;2.60;;
20986;SDS011;10652;50.306;8.570;2023-05-20T03:14:14;3.97;;;2.70;;
20986;SDS011;10652;50.306;8.570;2023-05-20T03:18:16;4.18;;;2.55;;
20986;SDS011;10652;50.306;8.570;2023-05-20T03:22:19;3.67;;;2.72;;
20986;SDS011;10652;50.306;8.570;2023-05-20T03:26:22;4.13;;;2.70;;
20986;SDS011;10652;50.306;8.570;2023-05-20T03:30:26;4.43;;;3.03;;
20986;SDS011;10652;50.306;8.570;2023-05-20T03:34:30;2.90;;;2.60;;
20986;SDS011;10652;50.306;8.570;2023-05-20T03:38:33;3.25;;;2.65;;
20986;SDS011;10652;50.306;8.570;2023-05-20T03:42:36;3.63;;;2.40;;
20986;SDS011;10652;50.306;8.570;2023-05-20T03:46:40;3.70;;;2.78;;
20986;SDS011;10652;50.306;8.570;2023-05-20T03:50:42;5.55;;;3.30;;
20986;SDS011;10652;50.306;8.570;2023-05-20T03:54:45;3.92;;;3.42;;
20986;SDS011;10652;50.306;8.570;2023-05-20T03:58:47;4.75;;;3.30;;
20986;SDS011;10652;50.306;8.570;2023-05-20T04:02:49;3.90;;;2.92;;
20986;SDS011;10652;50.306;8.570;2023-05-20T04:06:53;4.30;;;2.90;;
20986;SDS011;10652;50.306;8.570;2023-05-20T04:10:55;4.85;;;3.22;;
20986;SDS011;10652;50.306;8.570;2023-05-20T04:14:58;3.40;;;2.67;;
20986;SDS011;10652;50.306;8.570;2023-05-20T04:19:04;4.97;;;3.23;;
20986;SDS011;10652;50.306;8.570;2023-05-20T04:23:06;4.20;;;3.70;;
20986;SDS011;10652;50.306;8.570;2023-05-20T04:27:08;4.72;;;3.10;;
20986;SDS011;10652;50.306;8.570;2023-05-20T04:31:12;3.55;;;3.10;;
20986;SDS011;10652;50.306;8.570;2023-05-20T04:35:15;3.90;;;3.20;;
20986;SDS011;10652;50.306;8.570;2023-05-20T04:39:20;4.25;;;3.17;;
20986;SDS011;10652;50.306;8.570;2023-05-20T04:43:26;4.45;;;3.10;;
20986;SDS011;10652;50.306;8.570;2023-05-20T04:47:32;5.05;;;3.33;;
20986;SDS011;10652;50.306;8.570;2023-05-20T04:51:39;6.68;;;3.72;;
20986;SDS011;10652;50.306;8.570;2023-05-20T04:55:42;5.03;;;4.00;;
20986;SDS011;10652;50.306;8.570;2023-05-20T04:59:46;4.28;;;3.40;;
20986;SDS011;10652;50.306;8.570;2023-05-20T05:03:48;4.22;;;3.45;;
20986;SDS011;10652;50.306;8.570;2023-05-20T05:07:51;4.82;;;3.80;;
20986;SDS011;10652;50.306;8.570;2023-05-20T05:11:53;4.53;;;3.65;;
20986;SDS011;10652;50.306;8.570;2023-05-20T05:15:58;4.03;;;3.63;;
20986;SDS011;10652;50.306;8.570;2023-05-20T05:20:03;5.75;;;4.28;;
20986;SDS011;10652;50.306;8.570;2023-05-20T05:24:06;5.18;;;4.05;;
20986;SDS011;10652;50.306;8.570;2023-05-20T05:28:09;6.07;;;4.22;;
20986;SDS011;10652;50.306;8.570;2023-05-20T05:32:11;5.68;;;3.92;;
20986;SDS011;10652;50.306;8.570;2023-05-20T05:36:14;5.20;;;4.70;;
20986;SDS011;10652;50.306;8.570;2023-05-20T05:40:17;5.07;;;4.38;;
20986;SDS011;10652;50.306;8.570;2023-05-20T05:44:20;5.10;;;4.30;;
20986;SDS011;10652;50.306;8.570;2023-05-20T05:48:23;6.18;;;4.35;;
20986;SDS011;10652;50.306;8.570;2023-05-20T05:52:25;5.65;;;4.45;;
20986;SDS011;10652;50.306;8.570;2023-05-20T05:56:28;5.45;;;4.55;;
20986;SDS011;10652;50.306;8.570;2023-05-20T06:00:31;5.32;;;4.57;;
20986;SDS011;10652;50.306;8.570;2023-05-20T06:04:33;6.07;;;4.60;;
20986;SDS011;10652;50.306;8.570;2023-05-20T06:08:35;5.93;;;4.38;;
20986;SDS011;10652;50.306;8.570;2023-05-20T06:12:37;6.40;;;4.95;;
20986;SDS011;10652;50.306;8.570;2023-05-20T06:16:40;4.80;;;4.18;;
20986;SDS011;10652;50.306;8.570;2023-05-20T06:20:42;6.57;;;5.13;;
20986;SDS011;10652;50.306;8.570;2023-05-20T06:24:45;7.75;;;4.57;;
20986;SDS011;10652;50.306;8.570;2023-05-20T06:28:47;6.55;;;5.00;;
20986;SDS011;10652;50.306;8.570;2023-05-20T06:32:50;7.65;;;5.38;;
20986;SDS011;10652;50.306;8.570;2023-05-20T06:36:52;6.18;;;5.35;;
20986;SDS011;10652;50.306;8.570;2023-05-20T06:40:54;8.60;;;5.00;;
20986;SDS011;10652;50.306;8.570;2023-05-20T06:44:56;6.05;;;5.30;;
20986;SDS011;10652;50.306;8.570;2023-05-20T06:49:31;7.65;;;5.60;;
20986;SDS011;10652;50.306;8.570;2023-05-20T06:53:34;6.50;;;5.45;;
20986;SDS011;10652;50.306;8.570;2023-05-20T06:57:37;8.32;;;6.15;;
20986;SDS011;10652;50.306;8.570;2023-05-20T07:01:39;7.35;;;5.85;;
20986;SDS011;10652;50.306;8.570;2023-05-20T07:05:42;15.13;;;10.20;;
20986;SDS011;10652;50.306;8.570;2023-05-20T07:09:45;9.82;;;6.65;;
20986;SDS011;10652;50.306;8.570;2023-05-20T07:13:48;8.90;;;7.63;;
20986;SDS011;10652;50.306;8.570;2023-05-20T07:17:50;8.30;;;6.78;;
20986;SDS011;10652;50.306;8.570;2023-05-20T07:21:52;10.82;;;7.50;;
20986;SDS011;10652;50.306;8.570;2023-05-20T07:26:13;9.65;;;6.90;;
20986;SDS011;10652;50.306;8.570;2023-05-20T07:30:15;7.60;;;6.80;;
20986;SDS011;10652;50.306;8.570;2023-05-20T07:34:25;8.23;;;7.20;;
20986;SDS011;10652;50.306;8.570;2023-05-20T07:38:27;7.95;;;7.03;;
20986;SDS011;10652;50.306;8.570;2023-05-20T07:42:33;8.30;;;7.43;;
20986;SDS011;10652;50.306;8.570;2023-05-20T07:46:36;8.27;;;7.35;;
20986;SDS011;10652;50.306;8.570;2023-05-20T07:50:40;9.73;;;6.78;;
20986;SDS011;10652;50.306;8.570;2023-05-20T07:54:43;8.10;;;7.30;;
20986;SDS011;10652;50.306;8.570;2023-05-20T07:58:53;8.80;;;6.93;;
20986;SDS011;10652;50.306;8.570;2023-05-20T08:02:58;9.07;;;7.55;;
20986;SDS011;10652;50.306;8.570;2023-05-20T08:07:07;8.48;;;7.07;;
20986;SDS011;10652;50.306;8.570;2023-05-20T08:11:22;8.57;;;7.60;;
20986;SDS011;10652;50.306;8.570;2023-05-20T08:15:26;8.52;;;7.15;;
20986;SDS011;10652;50.306;8.570;2023-05-20T08:19:28;11.23;;;7.22;;
20986;SDS011;10652;50.306;8.570;2023-05-20T08:23:30;9.45;;;7.60;;
20986;SDS011;10652;50.306;8.570;2023-05-20T08:27:37;10.93;;;7.63;;
20986;SDS011;10652;50.306;8.570;2023-05-20T08:31:40;8.82;;;7.80;;
20986;SDS011;10652;50.306;8.570;2023-05-20T08:35:43;9.00;;;8.10;;
20986;SDS011;10652;50.306;8.570;2023-05-20T08:39:45;12.00;;;7.28;;
20986;SDS011;10652;50.306;8.570;2023-05-20T08:43:49;10.45;;;8.25;;
20986;SDS011;10652;50.306;8.570;2023-05-20T08:47:53;9.02;;;8.13;;
20986;SDS011;10652;50.306;8.570;2023-05-20T08:51:56;9.32;;;8.35;;
20986;SDS011;10652;50.306;8.570;2023-05-20T08:56:00;10.93;;;7.60;;
20986;SDS011;10652;50.306;8.570;2023-05-20T09:00:05;10.60;;;8.00;;
20986;SDS011;10652;50.306;8.570;2023-05-20T09:04:11;9.10;;;8.13;;
20986;SDS011;10652;50.306;8.570;2023-05-20T09:08:13;11.23;;;8.35;;
20986;SDS011;10652;50.306;8.570;2023-05-20T09:12:15;8.98;;;7.78;;
20986;SDS011;10652;50.306;8.570;2023-05-20T09:16:18;9.30;;;7.97;;
20986;SDS011;10652;50.306;8.570;2023-05-20T09:20:21;8.93;;;7.72;;
20986;SDS011;10652;50.306;8.570;2023-05-20T09:24:26;9.02;;;8.02;;
20986;SDS011;10652;50.306;8.570;2023-05-20T09:28:28;8.45;;;7.57;;
20986;SDS011;10652;50.306;8.570;2023-05-20T09:32:31;10.93;;;8.70;;
20986;SDS011;10652;50.306;8.570;2023-05-20T09:36:33;9.13;;;8.15;;
20986;SDS011;10652;50.306;8.570;2023-05-20T09:40:36;9.98;;;9.02;;
20986;SDS011;10652;50.306;8.570;2023-05-20T09:44:41;10.73;;;7.72;;
20986;SDS011;10652;50.306;8.570;2023-05-20T09:48:45;8.68;;;7.32;;
20986;SDS011;10652;50.306;8.570;2023-05-20T09:52:48;9.45;;;8.20;;
20986;SDS011;10652;50.306;8.570;2023-05-20T09:56:55;8.38;;;7.57;;
20986;SDS011;10652;50.306;8.570;2023-05-20T10:00:58;8.90;;;7.57;;
20986;SDS011;10652;50.306;8.570;2023-05-20T10:05:02;8.88;;;7.97;;
20986;SDS011;10652;50.306;8.570;2023-05-20T10:17:27;11.18;;;7.80;;
20986;SDS011;10652;50.306;8.570;2023-05-20T10:21:41;9.10;;;7.45;;
20986;SDS011;10652;50.306;8.570;2023-05-20T10:25:49;10.77;;;7.80;;
20986;SDS011;10652;50.306;8.570;2023-05-20T10:29:55;8.57;;;7.05;;
20986;SDS011;10652;50.306;8.570;2023-05-20T10:33:58;7.95;;;7.00;;
20986;SDS011;10652;50.306;8.570;2023-05-20T10:38:07;8.57;;;7.65;;
20986;SDS011;10652;50.306;8.570;2023-05-20T10:42:11;8.55;;;7.70;;
20986;SDS011;10652;50.306;8.570;2023-05-20T10:46:16;8.40;;;7.10;;
20986;SDS011;10652;50.306;8.570;2023-05-20T10:50:39;8.00;;;7.30;;
20986;SDS011;10652;50.306;8.570;2023-05-20T10:54:54;8.13;;;7.35;;
20986;SDS011;10652;50.306;8.570;2023-05-20T10:59:00;8.55;;;7.75;;
20986;SDS011;10652;50.306;8.570;2023-05-20T11:03:03;8.25;;;6.82;;
20986;SDS011;10652;50.306;8.570;2023-05-20T11:07:06;8.20;;;6.60;;
20986;SDS011;10652;50.306;8.570;2023-05-20T11:11:09;7.57;;;6.78;;
20986;SDS011;10652;50.306;8.570;2023-05-20T11:15:11;7.90;;;7.10;;
20986;SDS011;10652;50.306;8.570;2023-05-20T11:19:14;9.43;;;7.78;;
20986;SDS011;10652;50.306;8.570;2023-05-20T11:23:19;9.20;;;7.50;;
20986;SDS011;10652;50.306;8.570;2023-05-20T11:27:24;11.65;;;7.90;;
20986;SDS011;10652;50.306;8.570;2023-05-20T11:31:26;8.88;;;7.97;;
20986;SDS011;10652;50.306;8.570;2023-05-20T11:35:32;10.13;;;8.50;;
20986;SDS011;10652;50.306;8.570;2023-05-20T11:39:34;11.75;;;9.02;;
20986;SDS011;10652;50.306;8.570;2023-05-20T11:43:36;10.05;;;8.95;;
20986;SDS011;10652;50.306;8.570;2023-05-20T11:47:38;11.07;;;9.43;;
20986;SDS011;10652;50.306;8.570;2023-05-20T11:51:41;11.38;;;8.70;;
20986;SDS011;10652;50.306;8.570;2023-05-20T11:55:44;9.70;;;8.70;;
20986;SDS011;10652;50.306;8.570;2023-05-20T11:59:49;10.50;;;9.50;;
20986;SDS011;10652;50.306;8.570;2023-05-20T12:03:51;12.00;;;9.25;;
20986;SDS011;10652;50.306;8.570;2023-05-20T12:07:54;10.93;;;9.82;;
20986;SDS011;10652;50.306;8.570;2023-05-20T12:11:57;11.15;;;9.23;;
20986;SDS011;10652;50.306;8.570;2023-05-20T12:16:00;13.05;;;9.75;;
20986;SDS011;10652;50.306;8.570;2023-05-20T12:20:02;10.60;;;9.13;;
20986;SDS011;10652;50.306;8.570;2023-05-20T12:24:07;11.75;;;9.63;;
20986;SDS011;10652;50.306;8.570;2023-05-20T12:28:09;10.25;;;9.00;;
20986;SDS011;10652;50.306;8.570;2023-05-20T12:32:12;12.75;;;9.40;;
20986;SDS011;10652;50.306;8.570;2023-05-20T12:36:14;10.77;;;9.45;;
20986;SDS011;10652;50.306;8.570;2023-05-20T12:40:16;13.60;;;9.52;;
20986;SDS011;10652;50.306;8.570;2023-05-20T12:44:18;13.30;;;9.73;;
20986;SDS011;10652;50.306;8.570;2023-05-20T12:48:20;10.98;;;9.88;;
20986;SDS011;10652;50.306;8.570;2023-05-20T12:52:22;11.57;;;10.20;;
20986;SDS011;10652;50.306;8.570;2023-05-20T12:56:24;11.27;;;10.18;;
20986;SDS011;10652;50.306;8.570;2023-05-20T13:00:27;9.98;;;8.98;;
20986;SDS011;10652;50.306;8.570;2023-05-20T13:04:29;13.13;;;9.73;;
20986;SDS011;10652;50.306;8.570;2023-05-20T13:08:32;9.63;;;8.63;;
20986;SDS011;10652;50.306;8.570;2023-05-20T13:12:34;10.88;;;9.77;;
20986;SDS011;10652;50.306;8.570;2023-05-20T13:16:36;10.48;;;9.38;;
20986;SDS011;10652;50.306;8.570;2023-05-20T13:20:39;12.82;;;10.02;;
20986;SDS011;10652;50.306;8.570;2023-05-20T13:24:41;10.65;;;9.55;;
20986;SDS011;10652;50.306;8.570;2023-05-20T13:28:43;10.98;;;9.45;;
20986;SDS011;10652;50.306;8.570;2023-05-20T13:32:45;11.18;;;8.85;;
20986;SDS011;10652;50.306;8.570;2023-05-20T13:36:47;10.63;;;9.05;;
20986;SDS011;10652;50.306;8.570;2023-05-20T13:40:49;10.63;;;9.52;;
20986;SDS011;10652;50.306;8.570;2023-05-20T13:44:51;14.02;;;8.85;;
20986;SDS011;10652;50.306;8.570;2023-05-20T13:48:53;9.75;;;8.75;;
20986;SDS011;10652;50.306;8.570;2023-05-20T13:52:56;11.55;;;8.70;;
20986;SDS011;10652;50.306;8.570;2023-05-20T13:56:58;10.85;;;9.00;;
20986;SDS011;10652;50.306;8.570;2023-05-20T14:01:00;10.27;;;9.27;;
20986;SDS011;10652;50.306;8.570;2023-05-20T14:05:02;10.80;;;9.15;;
20986;SDS011;10652;50.306;8.570;2023-05-20T14:09:05;10.48;;;9.27;;
20986;SDS011;10652;50.306;8.570;2023-05-20T14:13:09;9.82;;;8.88;;
20986;SDS011;10652;50.306;8.570;2023-05-20T14:17:11;9.40;;;8.38;;
20986;SDS011;10652;50.306;8.570;2023-05-20T14:21:13;8.73;;;7.82;;
20986;SDS011;10652;50.306;8.570;2023-05-20T14:25:15;10.50;;;8.73;;
20986;SDS011;10652;50.306;8.570;2023-05-20T14:29:17;10.80;;;9.45;;
20986;SDS011;10652;50.306;8.570;2023-05-20T14:33:20;9.50;;;8.20;;
20986;SDS011;10652;50.306;8.570;2023-05-20T14:37:22;9.82;;;8.82;;
20986;SDS011;10652;50.306;8.570;2023-05-20T14:41:24;9.10;;;8.20;;
20986;SDS011;10652;50.306;8.570;2023-05-20T14:45:26;9.32;;;8.30;;
20986;SDS011;10652;50.306;8.570;2023-05-20T14:49:29;9.77;;;8.45;;
20986;SDS011;10652;50.306;8.570;2023-05-20T14:53:32;9.48;;;8.07;;
20986;SDS011;10652;50.306;8.570;2023-05-20T14:57:34;9.85;;;7.70;;
20986;SDS011;10652;50.306;8.570;2023-05-20T15:01:36;10.13;;;8.25;;
20986;SDS011;10652;50.306;8.570;2023-05-20T15:05:38;9.52;;;8.38;;
20986;SDS011;10652;50.306;8.570;2023-05-20T15:09:41;9.18;;;8.20;;
20986;SDS011;10652;50.306;8.570;2023-05-20T15:13:44;9.57;;;8.52;;
20986;SDS011;10652;50.306;8.570;2023-05-20T15:17:47;10.15;;;8.13;;
20986;SDS011;10652;50.306;8.570;2023-05-20T15:21:49;9.75;;;8.85;;
20986;SDS011;10652;50.306;8.570;2023-05-20T15:25:52;10.48;;;9.48;;
20986;SDS011;10652;50.306;8.570;2023-05-20T15:29:54;10.50;;;9.05;;
20986;SDS011;10652;50.306;8.570;2023-05-20T15:33:56;10.77;;;9.10;;
20986;SDS011;10652;50.306;8.570;2023-05-20T15:37:59;10.32;;;8.70;;
20986;SDS011;10652;50.306;8.570;2023-05-20T15:42:01;8.98;;;8.13;;
20986;SDS011;10652;50.306;8.570;2023-05-20T15:46:04;10.82;;;8.68;;
20986;SDS011;10652;50.306;8.570;2023-05-20T15:50:06;11.63;;;7.80;;
20986;SDS011;10652;50.306;8.570;2023-05-20T15:54:09;10.40;;;8.60;;
20986;SDS011;10652;50.306;8.570;2023-05-20T15:58:11;9.25;;;8.35;;
20986;SDS011;10652;50.306;8.570;2023-05-20T16:02:13;9.43;;;8.45;;
20986;SDS011;10652;50.306;8.570;2023-05-20T16:06:15;9.95;;;8.70;;
20986;SDS011;10652;50.306;8.570;2023-05-20T16:10:18;10.63;;;8.60;;
20986;SDS011;10652;50.306;8.570;2023-05-20T16:14:20;12.27;;;8.88;;
20986;SDS011;10652;50.306;8.570;2023-05-20T16:18:22;10.18;;;9.18;;
20986;SDS011;10652;50.306;8.570;2023-05-20T16:22:25;10.38;;;8.15;;
20986;SDS011;10652;50.306;8.570;2023-05-20T16:26:27;9.73;;;8.82;;
20986;SDS011;10652;50.306;8.570;2023-05-20T16:30:33;9.65;;;8.65;;
20986;SDS011;10652;50.306;8.570;2023-05-20T16:34:36;10.63;;;8.10;;
20986;SDS011;10652;50.306;8.570;2023-05-20T16:38:38;9.93;;;8.40;;
20986;SDS011;10652;50.306;8.570;2023-05-20T16:42:40;10.07;;;8.70;;
20986;SDS011;10652;50.306;8.570;2023-05-20T16:46:43;9.82;;;8.82;;
20986;SDS011;10652;50.306;8.570;2023-05-20T16:50:45;9.32;;;8.43;;
20986;SDS011;10652;50.306;8.570;2023-05-20T16:54:47;9.27;;;8.10;;
20986;SDS011;10652;50.306;8.570;2023-05-20T16:58:51;10.55;;;8.55;;
20986;SDS011;10652;50.306;8.570;2023-05-20T17:02:54;11.18;;;9.15;;
20986;SDS011;10652;50.306;8.570;2023-05-20T17:06:56;13.00;;;8.88;;
20986;SDS011;10652;50.306;8.570;2023-05-20T17:10:58;10.15;;;9.00;;
20986;SDS011;10652;50.306;8.570;2023-05-20T17:15:01;11.40;;;9.27;;
20986;SDS011;10652;50.306;8.570;2023-05-20T17:19:03;10.55;;;9.35;;
20986;SDS011;10652;50.306;8.570;2023-05-20T17:23:05;11.20;;;9.35;;
20986;SDS011;10652;50.306;8.570;2023-05-20T17:27:08;11.50;;;10.15;;
20986;SDS011;10652;50.306;8.570;2023-05-20T17:31:10;12.90;;;9.93;;
20986;SDS011;10652;50.306;8.570;2023-05-20T17:35:12;11.90;;;10.50;;
20986;SDS011;10652;50.306;8.570;2023-05-20T17:39:14;12.82;;;10.23;;
20986;SDS011;10652;50.306;8.570;2023-05-20T17:43:17;13.23;;;10.23;;
20986;SDS011;10652;50.306;8.570;2023-05-20T17:47:20;12.40;;;10.85;;
20986;SDS011;10652;50.306;8.570;2023-05-20T17:51:22;12.68;;;10.00;;
20986;SDS011;10652;50.306;8.570;2023-05-20T17:55:24;11.93;;;10.13;;
20986;SDS011;10652;50.306;8.570;2023-05-20T17:59:26;11.57;;;10.02;;
20986;SDS011;10652;50.306;8.570;2023-05-20T18:03:28;12.00;;;10.18;;
20986;SDS011;10652;50.306;8.570;2023-05-20T18:07:30;12.75;;;10.73;;
20986;SDS011;10652;50.306;8.570;2023-05-20T18:11:34;12.68;;;10.40;;
20986;SDS011;10652;50.306;8.570;2023-05-20T18:15:36;13.43;;;11.00;;
20986;SDS011;10652;50.306;8.570;2023-05-20T18:19:38;13.23;;;10.88;;
20986;SDS011;10652;50.306;8.570;2023-05-20T18:23:40;13.18;;;10.75;;
20986;SDS011;10652;50.306;8.570;2023-05-20T18:27:42;13.25;;;10.73;;
20986;SDS011;10652;50.306;8.570;2023-05-20T18:31:44;13.05;;;11.63;;
20986;SDS011;10652;50.306;8.570;2023-05-20T18:35:47;13.82;;;10.98;;
20986;SDS011;10652;50.306;8.570;2023-05-20T18:39:49;14.15;;;10.75;;
20986;SDS011;10652;50.306;8.570;2023-05-20T18:43:51;12.70;;;10.55;;
20986;SDS011;10652;50.306;8.570;2023-05-20T18:47:53;13.23;;;11.15;;
20986;SDS011;10652;50.306;8.570;2023-05-20T18:51:58;13.55;;;12.13;;
20986;SDS011;10652;50.306;8.570;2023-05-20T18:56:00;13.25;;;11.20;;
20986;SDS011;10652;50.306;8.570;2023-05-20T19:00:04;13.02;;;11.65;;
20986;SDS011;10652;50.306;8.570;2023-05-20T19:04:09;15.13;;;11.77;;
20986;SDS011;10652;50.306;8.570;2023-05-20T19:08:11;14.65;;;12.02;;
20986;SDS011;10652;50.306;8.570;2023-05-20T19:12:13;14.02;;;12.52;;
20986;SDS011;10652;50.306;8.570;2023-05-20T19:16:15;14.57;;;12.75;;
20986;SDS011;10652;50.306;8.570;2023-05-20T19:20:17;13.73;;;11.70;;
20986;SDS011;10652;50.306;8.570;2023-05-20T19:24:19;17.95;;;12.70;;
20986;SDS011;10652;50.306;8.570;2023-05-20T19:28:22;15.25;;;12.77;;
20986;SDS011;10652;50.306;8.570;2023-05-20T19:32:24;15.50;;;12.25;;
20986;SDS011;10652;50.306;8.570;2023-05-20T19:36:26;15.27;;;13.02;;
20986;SDS011;10652;50.306;8.570;2023-05-20T19:40:28;15.30;;;12.60;;
20986;SDS011;10652;50.306;8.570;2023-05-20T19:44:30;15.27;;;13.10;;
20986;SDS011;10652;50.306;8.570;2023-05-20T19:48:32;14.52;;;11.63;;
20986;SDS011;10652;50.306;8.570;2023-05-20T19:52:34;14.85;;;12.40;;
20986;SDS011;10652;50.306;8.570;2023-05-20T19:56:36;15.40;;;12.60;;
20986;SDS011;10652;50.306;8.570;2023-05-20T20:00:38;15.93;;;12.45;;
20986;SDS011;10652;50.306;8.570;2023-05-20T20:04:41;14.93;;;12.43;;
20986;SDS011;10652;50.306;8.570;2023-05-20T20:08:43;14.63;;;11.48;;
20986;SDS011;10652;50.306;8.570;2023-05-20T20:12:46;14.75;;;11.90;;
20986;SDS011;10652;50.306;8.570;2023-05-20T20:16:48;15.45;;;12.73;;
20986;SDS011;10652;50.306;8.570;2023-05-20T20:20:50;15.27;;;12.13;;
20986;SDS011;10652;50.306;8.570;2023-05-20T20:24:52;13.45;;;11.63;;
20986;SDS011;10652;50.306;8.570;2023-05-20T20:28:54;16.05;;;12.23;;
20986;SDS011;10652;50.306;8.570;2023-05-20T20:32:57;15.98;;;12.50;;
20986;SDS011;10652;50.306;8.570;2023-05-20T20:36:59;15.75;;;12.15;;
20986;SDS011;10652;50.306;8.570;2023-05-20T20:41:04;15.13;;;11.98;;
20986;SDS011;10652;50.306;8.570;2023-05-20T20:45:06;15.60;;;11.80;;
20986;SDS011;10652;50.306;8.570;2023-05-20T20:49:08;15.70;;;12.18;;
20986;SDS011;10652;50.306;8.570;2023-05-20T20:53:11;17.08;;;12.05;;
20986;SDS011;10652;50.306;8.570;2023-05-20T20:57:14;12.85;;;11.15;;
20986;SDS011;10652;50.306;8.570;2023-05-20T21:01:16;17.13;;;12.45;;
20986;SDS011;10652;50.306;8.570;2023-05-20T21:05:18;16.35;;;12.40;;
20986;SDS011;10652;50.306;8.570;2023-05-20T21:09:22;15.55;;;12.55;;
20986;SDS011;10652;50.306;8.570;2023-05-20T21:13:25;15.73;;;12.13;;
20986;SDS011;10652;50.306;8.570;2023-05-20T21:17:30;14.85;;;12.27;;
20986;SDS011;10652;50.306;8.570;2023-05-20T21:21:32;15.75;;;11.80;;
20986;SDS011;10652;50.306;8.570;2023-05-20T21:25:34;14.60;;;11.65;;
20986;SDS011;10652;50.306;8.570;2023-05-20T21:29:37;14.70;;;12.30;;
20986;SDS011;10652;50.306;8.570;2023-05-20T21:33:41;15.45;;;11.63;;
20986;SDS011;10652;50.306;8.570;2023-05-20T21:37:43;13.25;;;11.32;;
20986;SDS011;10652;50.306;8.570;2023-05-20T21:41:45;13.65;;;11.02;;
20986;SDS011;10652;50.306;8.570;2023-05-20T21:45:47;14.05;;;11.02;;
20986;SDS011;10652;50.306;8.570;2023-05-20T21:49:49;14.60;;;11.68;;
20986;SDS011;10652;50.306;8.570;2023-05-20T21:53:51;14.02;;;10.95;;
20986;SDS011;10652;50.306;8.570;2023-05-20T21:57:53;13.07;;;11.13;;
20986;SDS011;10652;50.306;8.570;2023-05-20T22:01:55;13.40;;;10.85;;
20986;SDS011;10652;50.306;8.570;2023-05-20T22:05:59;15.02;;;10.85;;
20986;SDS011;10652;50.306;8.570;2023-05-20T22:10:01;15.70;;;11.52;;
20986;SDS011;10652;50.306;8.570;2023-05-20T22:14:04;15.18;;;10.98;;
20986;SDS011;10652;50.306;8.570;2023-05-20T22:18:06;13.70;;;10.48;;
20986;SDS011;10652;50.306;8.570;2023-05-20T22:22:08;13.75;;;10.50;;
20986;SDS011;10652;50.306;8.570;2023-05-20T22:26:11;13.23;;;10.25;;
20986;SDS011;10652;50.306;8.570;2023-05-20T22:30:13;13.25;;;10.50;;
20986;SDS011;10652;50.306;8.570;2023-05-20T22:34:15;13.63;;;10.27;;
20986;SDS011;10652;50.306;8.570;2023-05-20T22:38:17;13.82;;;10.35;;
20986;SDS011;10652;50.306;8.570;2023-05-20T22:42:19;13.80;;;11.20;;
20986;SDS011;10652;50.306;8.570;2023-05-20T22:46:21;14.45;;;10.77;;
20986;SDS011;10652;50.306;8.570;2023-05-20T22:50:24;13.27;;;10.90;;
20986;SDS011;10652;50.306;8.570;2023-05-20T22:54:27;13.40;;;10.40;;
20986;SDS011;10652;50.306;8.570;2023-05-20T22:58:29;13.32;;;10.55;;
20986;SDS011;10652;50.306;8.570;2023-05-20T23:02:34;13.93;;;9.82;;
20986;SDS011;10652;50.306;8.570;2023-05-20T23:06:36;12.43;;;10.30;;
20986;SDS011;10652;50.306;8.570;2023-05-20T23:10:39;13.98;;;10.32;;
20986;SDS011;10652;50.306;8.570;2023-05-20T23:14:41;14.15;;;11.27;;
20986;SDS011;10652;50.306;8.570;2023-05-20T23:18:44;13.05;;;10.05;;
20986;SDS011;10652;50.306;8.570;2023-05-20T23:22:47;14.23;;;10.70;;
20986;SDS011;10652;50.306;8.570;2023-05-20T23:26:49;12.18;;;9.93;;
20986;SDS011;10652;50.306;8.570;2023-05-20T23:30:51;13.30;;;10.93;;
20986;SDS011;10652;50.306;8.570;2023-05-20T23:34:53;12.55;;;10.45;;
20986;SDS011;10652;50.306;8.570;2023-05-20T23:38:56;12.27;;;9.95;;
20986;SDS011;10652;50.306;8.570;2023-05-20T23:42:58;10.65;;;9.32;;
20986;SDS011;10652;50.306;8.570;2023-05-20T23:47:00;13.73;;;10.23;;
20986;SDS011;10652;50.306;8.570;2023-05-20T23:51:03;12.98;;;9.38;;
20986;SDS011;10652;50.306;8.570;2023-05-20T23:55:05;13.05;;;10.10;;
20986;SDS011;10652;50.306;8.570;2023-05-20T23:59:10;12.95;;;10.07;;
